createdAt,value
2023-05-08T00:02:22.830Z,78.60
2023-05-08T00:04:49.560Z,78.60
2023-05-08T00:07:16.162Z,78.60
2023-05-08T00:09:42.727Z,78.60
2023-05-08T00:12:09.333Z,78.60
2023-05-08T00:14:36.225Z,78.70
2023-05-08T00:17:03.144Z,78.60
2023-05-08T00:19:29.910Z,78.70
2023-05-08T00:21:56.529Z,78.90
2023-05-08T00:24:23.231Z,79.00
2023-05-08T00:26:49.986Z,79.10
2023-05-08T00:29:16.568Z,79.10
2023-05-08T00:31:43.167Z,79.20
2023-05-08T00:34:09.845Z,79.30
2023-05-08T00:36:36.473Z,79.30
2023-05-08T00:39:03.416Z,79.20
2023-05-08T00:41:30.080Z,79.20
2023-05-08T00:43:56.640Z,79.20
2023-05-08T00:46:23.671Z,79.20
2023-05-08T00:48:50.672Z,79.20
2023-05-08T00:51:17.732Z,79.30
2023-05-08T00:53:45.460Z,79.30
2023-05-08T00:56:14.292Z,79.30
2023-05-08T00:58:42.004Z,79.30
2023-05-08T01:01:08.994Z,79.30
2023-05-08T01:03:36.732Z,79.30
2023-05-08T01:06:04.373Z,79.40
2023-05-08T01:08:31.988Z,79.40
2023-05-08T01:11:36.086Z,79.40
2023-05-08T01:14:24.975Z,79.50
2023-05-08T01:17:06.672Z,79.40
2023-05-08T01:19:42.143Z,79.30
2023-05-08T01:22:42.180Z,79.30
2023-05-08T01:25:29.136Z,79.20
2023-05-08T01:28:20.751Z,79.20
2023-05-08T01:31:12.258Z,79.20
2023-05-08T01:33:59.850Z,79.20
2023-05-08T01:36:33.257Z,79.30
2023-05-08T01:39:18.716Z,79.40
2023-05-08T01:42:00.681Z,79.30
2023-05-08T01:44:41.384Z,79.40
2023-05-08T01:47:11.698Z,79.40
2023-05-08T01:49:52.942Z,79.50
2023-05-08T01:52:30.416Z,79.50
2023-05-08T01:55:01.638Z,79.60
2023-05-08T01:57:31.102Z,79.60
2023-05-08T02:00:01.543Z,79.60
2023-05-08T02:02:32.006Z,79.70
2023-05-08T02:05:00.849Z,79.80
2023-05-08T02:07:28.361Z,79.80
2023-05-08T02:09:56.528Z,79.80
2023-05-08T02:12:25.219Z,79.80
2023-05-08T02:14:53.408Z,79.50
2023-05-08T02:17:21.639Z,79.30
2023-05-08T02:19:50.640Z,79.30
2023-05-08T02:22:19.600Z,79.20
2023-05-08T02:24:46.506Z,79.20
2023-05-08T02:27:14.697Z,79.20
2023-05-08T02:29:42.230Z,79.20
2023-05-08T02:32:09.783Z,79.10
2023-05-08T02:34:37.166Z,78.90
2023-05-08T02:37:06.035Z,78.90
2023-05-08T02:39:35.524Z,78.90
2023-05-08T02:42:02.312Z,79.00
2023-05-08T02:44:29.014Z,79.00
2023-05-08T02:47:25.839Z,79.10
2023-05-08T02:50:00.282Z,79.20
2023-05-08T02:52:50.791Z,79.20
2023-05-08T02:55:30.949Z,79.20
2023-05-08T02:58:04.049Z,79.20
2023-05-08T03:00:35.216Z,79.20
2023-05-08T03:03:13.471Z,79.10
2023-05-08T03:05:47.149Z,79.10
2023-05-08T03:08:20.752Z,79.10
2023-05-08T03:10:51.428Z,79.10
2023-05-08T03:13:20.722Z,79.10
2023-05-08T03:15:52.370Z,79.10
2023-05-08T03:18:21.963Z,79.00
2023-05-08T03:20:52.578Z,79.00
2023-05-08T03:23:21.951Z,79.00
2023-05-08T03:25:48.551Z,79.00
2023-05-08T03:28:15.917Z,79.10
2023-05-08T03:30:43.260Z,79.40
2023-05-08T03:33:12.153Z,79.50
2023-05-08T03:35:39.806Z,79.60
2023-05-08T03:38:08.233Z,79.70
2023-05-08T03:40:38.882Z,79.80
2023-05-08T03:43:09.591Z,79.90
2023-05-08T03:45:37.705Z,79.90
2023-05-08T03:48:06.572Z,80.00
2023-05-08T03:50:35.610Z,80.00
2023-05-08T03:53:02.636Z,79.90
2023-05-08T03:55:31.008Z,79.90
2023-05-08T03:58:24.487Z,79.80
2023-05-08T04:01:16.521Z,79.90
2023-05-08T04:03:57.414Z,80.60
2023-05-08T04:06:48.679Z,79.80
2023-05-08T04:09:35.809Z,79.80
2023-05-08T04:12:14.893Z,79.70
2023-05-08T04:14:50.267Z,79.80
2023-05-08T04:17:36.127Z,79.70
2023-05-08T04:20:08.869Z,79.80
2023-05-08T04:22:38.608Z,79.80
2023-05-08T04:25:06.882Z,79.80
2023-05-08T04:27:35.335Z,79.90
2023-05-08T04:30:02.564Z,79.80
2023-05-08T04:32:31.312Z,79.90
2023-05-08T04:34:59.310Z,79.90
2023-05-08T04:37:27.331Z,79.90
2023-05-08T04:39:54.290Z,80.00
2023-05-08T04:42:21.330Z,79.90
2023-05-08T04:44:48.104Z,80.00
2023-05-08T04:47:14.824Z,80.00
2023-05-08T04:49:41.520Z,80.20
2023-05-08T04:52:08.388Z,80.40
2023-05-08T04:54:35.090Z,80.50
2023-05-08T04:57:01.670Z,80.50
2023-05-08T04:59:29.436Z,80.50
2023-05-08T05:01:57.013Z,80.50
2023-05-08T05:04:23.735Z,80.60
2023-05-08T05:06:50.472Z,80.70
2023-05-08T05:09:17.271Z,80.60
2023-05-08T05:11:43.881Z,80.70
2023-05-08T05:14:10.698Z,80.70
2023-05-08T05:16:37.533Z,80.70
2023-05-08T05:19:04.784Z,80.90
2023-05-08T05:21:31.827Z,81.00
2023-05-08T05:23:58.552Z,81.10
2023-05-08T05:26:25.141Z,81.10
2023-05-08T05:28:51.740Z,81.20
2023-05-08T05:31:18.741Z,81.30
2023-05-08T05:33:46.528Z,81.40
2023-05-08T05:36:13.286Z,81.60
2023-05-08T05:38:39.926Z,81.60
2023-05-08T05:41:06.646Z,81.70
2023-05-08T05:43:33.369Z,81.70
2023-05-08T05:46:07.337Z,81.70
2023-05-08T05:48:34.338Z,81.90
2023-05-08T05:51:01.192Z,81.80
2023-05-08T05:53:28.057Z,81.70
2023-05-08T05:55:54.666Z,81.70
2023-05-08T05:58:21.335Z,81.60
2023-05-08T06:00:48.315Z,81.80
2023-05-08T06:03:15.108Z,81.70
2023-05-08T06:05:41.847Z,81.70
2023-05-08T06:08:08.599Z,81.60
2023-05-08T06:10:36.367Z,81.80
2023-05-08T06:13:03.050Z,81.80
2023-05-08T06:15:29.732Z,81.90
2023-05-08T06:17:56.514Z,81.80
2023-05-08T06:20:24.397Z,81.90
2023-05-08T06:22:52.880Z,81.70
2023-05-08T06:25:19.780Z,81.60
2023-05-08T06:27:46.427Z,81.50
2023-05-08T06:30:13.144Z,81.50
2023-05-08T06:32:39.851Z,81.40
2023-05-08T06:35:07.144Z,81.30
2023-05-08T06:37:33.767Z,81.00
2023-05-08T06:40:11.707Z,80.70
2023-05-08T06:42:40.190Z,80.60
2023-05-08T06:45:08.079Z,81.60
2023-05-08T06:47:34.749Z,81.00
2023-05-08T06:50:01.539Z,81.10
2023-05-08T06:52:28.220Z,81.30
2023-05-08T06:54:54.873Z,81.30
2023-05-08T06:57:21.594Z,81.20
2023-05-08T06:59:48.257Z,80.90
2023-05-08T07:02:16.246Z,80.80
2023-05-08T07:04:44.472Z,80.90
2023-05-08T07:07:11.656Z,81.00
2023-05-08T07:09:38.279Z,80.90
2023-05-08T07:12:05.317Z,80.90
2023-05-08T07:14:31.973Z,80.90
2023-05-08T07:16:58.841Z,80.90
2023-05-08T07:19:25.596Z,80.80
2023-05-08T07:21:52.478Z,80.70
2023-05-08T07:24:19.106Z,80.70
2023-05-08T07:26:45.671Z,80.60
2023-05-08T07:29:12.777Z,80.60
2023-05-08T07:31:40.766Z,80.50
2023-05-08T07:34:07.560Z,80.70
2023-05-08T07:36:34.210Z,80.70
2023-05-08T07:39:00.776Z,80.50
2023-05-08T07:41:27.505Z,80.40
2023-05-08T07:43:54.135Z,80.20
2023-05-08T07:46:21.754Z,80.20
2023-05-08T07:48:48.841Z,80.10
2023-05-08T07:51:15.739Z,80.00
2023-05-08T07:53:42.461Z,80.00
2023-05-08T07:56:09.051Z,79.90
2023-05-08T07:58:35.706Z,79.90
2023-05-08T08:01:02.287Z,79.80
2023-05-08T08:03:29.056Z,79.80
2023-05-08T08:05:55.779Z,79.50
2023-05-08T08:08:22.386Z,79.70
2023-05-08T08:10:50.121Z,79.50
2023-05-08T08:13:17.543Z,79.40
2023-05-08T08:15:44.432Z,79.30
2023-05-08T08:18:11.167Z,79.30
2023-05-08T08:20:37.995Z,78.90
2023-05-08T08:23:06.330Z,78.60
2023-05-08T08:25:32.961Z,78.60
2023-05-08T08:27:59.565Z,78.60
2023-05-08T08:30:26.164Z,78.30
2023-05-08T08:32:52.924Z,78.30
2023-05-08T08:35:19.687Z,78.50
2023-05-08T08:37:46.340Z,78.60
2023-05-08T08:40:13.079Z,78.70
2023-05-08T08:42:40.053Z,78.80
2023-05-08T08:45:07.288Z,78.70
2023-05-08T08:47:37.905Z,78.50
2023-05-08T08:50:05.348Z,78.50
2023-05-08T08:52:49.048Z,78.40
2023-05-08T08:55:18.020Z,78.30
2023-05-08T08:57:53.397Z,78.50
2023-05-08T09:00:22.615Z,78.30
2023-05-08T09:02:49.957Z,78.10
2023-05-08T09:05:17.851Z,77.80
2023-05-08T09:07:44.696Z,77.80
2023-05-08T09:10:15.377Z,77.70
2023-05-08T09:12:42.516Z,77.10
2023-05-08T09:15:09.441Z,77.10
2023-05-08T09:17:36.339Z,77.20
2023-05-08T09:20:03.720Z,77.50
2023-05-08T09:22:31.236Z,77.00
2023-05-08T09:24:59.726Z,76.90
2023-05-08T09:27:28.320Z,76.80
2023-05-08T09:30:06.710Z,76.90
2023-05-08T09:32:35.094Z,77.00
2023-05-08T09:35:02.620Z,77.00
2023-05-08T09:37:29.441Z,76.70
2023-05-08T09:40:20.699Z,77.00
2023-05-08T09:42:48.627Z,76.30
2023-05-08T09:45:32.382Z,75.80
2023-05-08T09:47:59.466Z,75.00
2023-05-08T09:50:27.516Z,75.00
2023-05-08T09:52:54.199Z,75.10
2023-05-08T09:55:21.026Z,75.10
2023-05-08T09:57:55.933Z,74.90
2023-05-08T10:00:22.889Z,75.00
2023-05-08T10:03:00.976Z,75.10
2023-05-08T10:05:32.945Z,74.70
2023-05-08T10:08:20.539Z,74.50
2023-05-08T10:10:47.730Z,74.70
2023-05-08T10:13:14.500Z,74.80
2023-05-08T10:15:43.004Z,74.40
2023-05-08T10:18:10.935Z,73.80
2023-05-08T10:20:44.237Z,73.30
2023-05-08T10:23:15.366Z,73.10
2023-05-08T10:25:54.183Z,73.00
2023-05-08T10:28:27.103Z,73.00
2023-05-08T10:30:59.465Z,72.80
2023-05-08T10:33:34.056Z,72.80
2023-05-08T10:36:01.425Z,73.10
2023-05-08T10:38:28.289Z,72.40
2023-05-08T10:40:58.229Z,72.30
2023-05-08T10:43:25.664Z,72.20
2023-05-08T10:45:55.478Z,72.20
2023-05-08T10:48:35.790Z,72.10
2023-05-08T10:51:44.123Z,72.00
2023-05-08T10:54:47.097Z,71.70
2023-05-08T10:57:14.968Z,71.30
2023-05-08T10:59:46.834Z,71.10
2023-05-08T11:02:15.027Z,71.00
2023-05-08T11:04:42.018Z,70.70
2023-05-08T11:07:08.710Z,70.90
2023-05-08T11:10:06.095Z,71.10
2023-05-08T11:12:33.917Z,71.10
2023-05-08T11:15:06.250Z,71.20
2023-05-08T11:17:33.928Z,71.20
2023-05-08T11:20:05.727Z,71.20
2023-05-08T11:22:33.612Z,71.10
2023-05-08T11:25:07.389Z,71.30
2023-05-08T11:27:54.272Z,71.20
2023-05-08T11:30:36.080Z,70.90
2023-05-08T11:33:05.758Z,71.20
2023-05-08T11:35:49.473Z,71.00
2023-05-08T11:38:36.738Z,70.90
2023-05-08T11:41:04.659Z,70.70
2023-05-08T11:43:36.199Z,70.70
2023-05-08T11:46:04.960Z,70.30
2023-05-08T11:48:36.041Z,70.20
2023-05-08T11:51:03.832Z,70.30
2023-05-08T11:53:31.347Z,70.40
2023-05-08T11:55:58.970Z,70.30
2023-05-08T11:58:26.201Z,70.60
2023-05-08T12:00:53.189Z,70.50
2023-05-08T12:03:21.397Z,70.40
2023-05-08T12:05:49.396Z,70.30
2023-05-08T12:08:17.240Z,70.40
2023-05-08T12:10:47.022Z,70.10
2023-05-08T12:13:31.835Z,69.60
2023-05-08T12:16:00.993Z,69.90
2023-05-08T12:18:30.338Z,70.10
2023-05-08T12:20:59.239Z,69.60
2023-05-08T12:23:26.915Z,69.10
2023-05-08T12:25:55.313Z,68.40
2023-05-08T12:28:22.708Z,67.80
2023-05-08T12:30:50.100Z,67.90
2023-05-08T12:33:18.408Z,67.20
2023-05-08T12:35:45.176Z,66.90
2023-05-08T12:38:12.074Z,66.90
2023-05-08T12:40:44.494Z,66.90
2023-05-08T12:43:11.722Z,66.70
2023-05-08T12:45:40.783Z,66.90
2023-05-08T12:48:09.511Z,66.90
2023-05-08T12:50:41.348Z,66.60
2023-05-08T12:53:16.114Z,65.90
2023-05-08T12:55:57.270Z,65.90
2023-05-08T12:58:26.243Z,66.20
2023-05-08T13:00:54.655Z,66.60
2023-05-08T13:03:26.819Z,66.70
2023-05-08T13:05:55.879Z,66.00
2023-05-08T13:08:34.091Z,65.40
2023-05-08T13:11:02.717Z,65.30
2023-05-08T13:13:34.647Z,65.40
2023-05-08T13:16:06.443Z,65.30
2023-05-08T13:18:33.788Z,65.10
2023-05-08T13:21:02.061Z,65.00
2023-05-08T13:23:28.954Z,64.40
2023-05-08T13:25:56.116Z,64.50
2023-05-08T13:28:22.835Z,64.40
2023-05-08T13:30:49.490Z,64.40
2023-05-08T13:33:16.077Z,64.00
2023-05-08T13:35:42.761Z,64.00
2023-05-08T13:38:09.382Z,63.90
2023-05-08T13:40:36.085Z,64.00
2023-05-08T13:43:02.643Z,64.10
2023-05-08T13:45:29.368Z,64.40
2023-05-08T13:47:56.053Z,64.40
2023-05-08T13:50:22.925Z,64.30
2023-05-08T13:52:52.215Z,64.20
2023-05-08T13:55:22.179Z,64.50
2023-05-08T13:57:48.910Z,64.80
2023-05-08T14:00:15.898Z,64.40
2023-05-08T14:02:42.539Z,64.00
2023-05-08T14:05:09.500Z,64.00
2023-05-08T14:07:36.274Z,63.80
2023-05-08T14:10:03.437Z,63.50
2023-05-08T14:12:30.250Z,63.30
2023-05-08T14:14:56.941Z,62.60
2023-05-08T14:17:23.757Z,62.20
2023-05-08T14:19:50.503Z,61.60
2023-05-08T14:22:17.173Z,61.70
2023-05-08T14:24:44.337Z,62.10
2023-05-08T14:27:11.141Z,62.00
2023-05-08T14:29:37.814Z,61.70
2023-05-08T14:32:04.877Z,61.40
2023-05-08T14:34:31.503Z,61.60
2023-05-08T14:36:58.118Z,61.60
2023-05-08T14:39:24.756Z,61.30
2023-05-08T14:42:14.238Z,61.40
2023-05-08T14:44:38.268Z,60.90
2023-05-08T14:47:05.060Z,60.90
2023-05-08T14:49:37.966Z,61.00
2023-05-08T14:52:06.677Z,61.40
2023-05-08T14:54:33.851Z,61.50
2023-05-08T14:57:00.620Z,61.60
2023-05-08T14:59:27.248Z,61.30
2023-05-08T15:01:53.970Z,60.80
2023-05-08T15:04:20.887Z,60.60
2023-05-08T15:06:47.636Z,60.80
2023-05-08T15:09:16.289Z,60.50
2023-05-08T15:11:43.015Z,60.70
2023-05-08T15:14:09.980Z,60.40
2023-05-08T15:16:36.724Z,60.40
2023-05-08T15:19:03.433Z,60.30
2023-05-08T15:21:30.081Z,60.60
2023-05-08T15:23:56.683Z,60.90
2023-05-08T15:26:23.444Z,60.90
2023-05-08T15:28:50.846Z,60.30
2023-05-08T15:31:18.178Z,60.30
2023-05-08T15:33:45.200Z,60.40
2023-05-08T15:36:13.574Z,60.20
2023-05-08T15:38:40.981Z,60.30
2023-05-08T15:41:07.744Z,60.20
2023-05-08T15:43:34.381Z,61.10
2023-05-08T15:46:01.086Z,60.30
2023-05-08T15:48:27.811Z,60.40
2023-05-08T15:50:54.471Z,60.80
2023-05-08T15:53:21.124Z,60.90
2023-05-08T15:55:47.846Z,60.60
2023-05-08T15:58:14.417Z,60.80
2023-05-08T16:00:45.139Z,61.00
2023-05-08T16:03:12.477Z,61.10
2023-05-08T16:05:39.492Z,61.10
2023-05-08T16:08:06.274Z,61.40
2023-05-08T16:10:32.878Z,61.80
2023-05-08T16:12:59.551Z,61.70
2023-05-08T16:15:26.213Z,61.70
2023-05-08T16:17:52.920Z,61.80
2023-05-08T16:20:19.892Z,61.60
2023-05-08T16:22:46.542Z,61.80
2023-05-08T16:25:13.356Z,62.00
2023-05-08T16:27:40.268Z,62.10
2023-05-08T16:30:07.562Z,62.30
2023-05-08T16:32:34.212Z,63.30
2023-05-08T16:35:00.908Z,62.60
2023-05-08T16:37:27.547Z,62.80
2023-05-08T16:39:54.253Z,62.90
2023-05-08T16:42:20.903Z,63.30
2023-05-08T16:44:47.619Z,63.40
2023-05-08T16:47:14.497Z,63.30
2023-05-08T16:49:41.235Z,63.40
2023-05-08T16:52:08.269Z,63.60
2023-05-08T16:54:34.947Z,63.80
2023-05-08T16:57:01.694Z,63.90
2023-05-08T16:59:28.431Z,64.00
2023-05-08T17:01:55.377Z,64.00
2023-05-08T17:04:21.993Z,64.00
2023-05-08T17:06:48.653Z,64.10
2023-05-08T17:09:16.518Z,64.10
2023-05-08T17:11:43.161Z,64.10
2023-05-08T17:14:09.758Z,64.10
2023-05-08T17:16:36.513Z,64.40
2023-05-08T17:19:03.376Z,64.80
2023-05-08T17:21:31.972Z,64.60
2023-05-08T17:24:01.877Z,64.50
2023-05-08T17:26:32.634Z,64.40
2023-05-08T17:28:59.509Z,64.30
2023-05-08T17:31:26.123Z,64.40
2023-05-08T17:33:52.723Z,64.50
2023-05-08T17:36:19.383Z,64.50
2023-05-08T17:38:47.201Z,64.30
2023-05-08T17:41:14.465Z,64.50
2023-05-08T17:43:41.161Z,64.70
2023-05-08T17:46:07.986Z,64.90
2023-05-08T17:48:35.198Z,65.10
2023-05-08T17:51:03.041Z,65.20
2023-05-08T17:53:33.321Z,65.40
2023-05-08T17:55:59.932Z,65.60
2023-05-08T17:58:26.678Z,65.60
2023-05-08T18:00:53.991Z,65.70
2023-05-08T18:03:21.332Z,65.70
2023-05-08T18:05:47.999Z,65.90
2023-05-08T18:08:14.607Z,66.00
2023-05-08T18:10:41.287Z,66.10
2023-05-08T18:13:08.070Z,66.30
2023-05-08T18:15:36.096Z,66.40
2023-05-08T18:18:02.965Z,66.40
2023-05-08T18:20:29.634Z,66.40
2023-05-08T18:22:56.295Z,66.50
2023-05-08T18:25:22.867Z,66.70
2023-05-08T18:27:50.528Z,66.90
2023-05-08T18:30:17.366Z,66.90
2023-05-08T18:32:44.111Z,67.10
2023-05-08T18:35:10.852Z,67.10
2023-05-08T18:37:37.470Z,67.30
2023-05-08T18:40:05.086Z,67.50
2023-05-08T18:42:31.737Z,67.60
2023-05-08T18:45:00.231Z,67.70
2023-05-08T18:47:26.966Z,67.90
2023-05-08T18:49:53.760Z,68.00
2023-05-08T18:52:20.401Z,68.00
2023-05-08T18:54:46.973Z,68.20
2023-05-08T18:57:13.593Z,68.20
2023-05-08T18:59:40.435Z,68.20
2023-05-08T19:02:07.135Z,68.30
2023-05-08T19:04:33.794Z,68.40
2023-05-08T19:07:00.821Z,68.50
2023-05-08T19:09:28.660Z,68.60
2023-05-08T19:11:55.272Z,68.80
2023-05-08T19:14:21.853Z,68.80
2023-05-08T19:16:48.448Z,69.00
2023-05-08T19:19:15.177Z,69.10
2023-05-08T19:21:41.793Z,69.20
2023-05-08T19:24:08.625Z,69.30
2023-05-08T19:26:35.461Z,69.50
2023-05-08T19:29:02.126Z,69.70
2023-05-08T19:31:28.799Z,69.70
2023-05-08T19:33:57.138Z,70.00
2023-05-08T19:36:23.797Z,69.90
2023-05-08T19:38:50.414Z,70.00
2023-05-08T19:41:17.845Z,70.20
2023-05-08T19:43:44.556Z,70.40
2023-05-08T19:46:11.227Z,70.60
2023-05-08T19:48:37.957Z,70.70
2023-05-08T19:51:08.835Z,70.80
2023-05-08T19:53:35.802Z,71.00
2023-05-08T19:56:02.589Z,71.10
2023-05-08T19:58:29.232Z,71.10
2023-05-08T20:00:55.860Z,71.20
2023-05-08T20:03:22.617Z,71.30
2023-05-08T20:05:51.604Z,71.50
2023-05-08T20:08:18.727Z,71.60
2023-05-08T20:10:48.814Z,71.70
2023-05-08T20:13:16.868Z,71.80
2023-05-08T20:15:43.528Z,71.80
2023-05-08T20:18:10.492Z,71.90
2023-05-08T20:20:37.153Z,72.10
2023-05-08T20:23:04.336Z,72.10
2023-05-08T20:25:31.168Z,72.30
2023-05-08T20:27:57.862Z,72.40
2023-05-08T20:30:24.554Z,72.50
2023-05-08T20:32:51.209Z,72.60
2023-05-08T20:35:17.829Z,72.70
2023-05-08T20:37:45.749Z,72.80
2023-05-08T20:40:12.754Z,72.90
2023-05-08T20:42:41.105Z,72.90
2023-05-08T20:45:09.015Z,73.00
2023-05-08T20:47:36.237Z,73.00
2023-05-08T20:50:03.624Z,73.00
2023-05-08T20:52:32.163Z,72.90
2023-05-08T20:54:59.553Z,72.80
2023-05-08T20:57:26.344Z,72.80
2023-05-08T20:59:52.972Z,72.80
2023-05-08T21:02:19.625Z,72.70
2023-05-08T21:04:46.389Z,72.70
2023-05-08T21:07:13.118Z,72.80
2023-05-08T21:09:39.788Z,73.50
2023-05-08T21:12:06.746Z,72.70
2023-05-08T21:14:34.847Z,72.70
2023-05-08T21:17:01.573Z,72.80
2023-05-08T21:19:28.225Z,72.90
2023-05-08T21:21:54.771Z,73.00
2023-05-08T21:24:21.586Z,73.10
2023-05-08T21:26:48.180Z,73.00
2023-05-08T21:29:14.835Z,73.10
2023-05-08T21:31:41.991Z,73.10
2023-05-08T21:34:08.838Z,73.10
2023-05-08T21:36:35.658Z,73.10
2023-05-08T21:39:04.036Z,73.10
2023-05-08T21:41:30.784Z,73.20
2023-05-08T21:43:57.352Z,73.30
2023-05-08T21:46:24.026Z,73.40
2023-05-08T21:48:50.825Z,73.30
2023-05-08T21:51:17.450Z,73.40
2023-05-08T21:53:43.999Z,73.60
2023-05-08T21:56:10.636Z,73.70
2023-05-08T21:58:37.332Z,73.90
2023-05-08T22:01:04.049Z,73.90
2023-05-08T22:03:31.468Z,74.00
2023-05-08T22:05:58.182Z,74.10
2023-05-08T22:08:24.772Z,74.10
2023-05-08T22:10:51.378Z,74.10
2023-05-08T22:13:17.991Z,74.20
2023-05-08T22:15:44.719Z,74.20
2023-05-08T22:18:11.383Z,74.30
2023-05-08T22:20:38.037Z,74.40
2023-05-08T22:23:04.664Z,74.50
2023-05-08T22:25:31.418Z,74.70
2023-05-08T22:27:58.318Z,74.80
2023-05-08T22:30:24.908Z,74.80
2023-05-08T22:32:57.145Z,74.90
2023-05-08T22:35:25.919Z,75.00
2023-05-08T22:37:53.384Z,75.00
2023-05-08T22:40:20.865Z,74.90
2023-05-08T22:42:48.183Z,75.00
2023-05-08T22:45:15.191Z,75.00
2023-05-08T22:47:42.160Z,75.00
2023-05-08T22:50:09.339Z,75.10
2023-05-08T22:52:36.604Z,75.20
2023-05-08T22:55:04.459Z,75.20
2023-05-08T22:57:31.231Z,75.30
2023-05-08T22:59:57.831Z,75.50
2023-05-08T23:02:24.435Z,75.50
2023-05-08T23:04:51.499Z,75.50
2023-05-08T23:07:18.281Z,75.60
2023-05-08T23:09:44.897Z,75.50
2023-05-08T23:12:11.492Z,75.50
2023-05-08T23:14:38.108Z,75.60
2023-05-08T23:17:04.769Z,75.80
2023-05-08T23:19:31.505Z,75.80
2023-05-08T23:21:58.139Z,75.90
2023-05-08T23:24:24.812Z,76.00
2023-05-08T23:26:52.509Z,76.00
2023-05-08T23:29:19.058Z,75.90
2023-05-08T23:31:46.037Z,76.00
2023-05-08T23:34:12.770Z,75.90
2023-05-08T23:36:39.431Z,76.00
2023-05-08T23:39:07.084Z,76.00
2023-05-08T23:41:34.123Z,76.10
2023-05-08T23:44:00.760Z,76.20
2023-05-08T23:46:27.346Z,76.30
2023-05-08T23:48:54.008Z,76.20
2023-05-08T23:51:21.489Z,76.20
2023-05-08T23:53:48.926Z,76.40
2023-05-08T23:56:15.725Z,76.40
2023-05-08T23:58:42.528Z,76.50
